Time;durP1;ratioP1;P1;durP2;ratioP2;P2;SDS_P1;SDS_P2;PMS_P1;PMS_P2;Temp;Humidity;BMP_temperature;BMP_pressure;BME280_temperature;BME280_humidity;BME280_pressure;Samples;Min_cycle;Max_cycle;Signal;HPM_P1;HPM_P2
2023/06/12 00:02:04;;;;;;;;;;;;;;;;;;5091448;27;19916;-68
2023/06/12 00:04:30;;;;;;;;;;;;;;;;;;5090964;28;19935;-69
2023/06/12 00:08:52;;;;;;;;;;;;;;;;;;5091878;27;19919;-69
2023/06/12 00:11:18;;;;;;;;;;;;;;;;;;5090991;28;20003;-69
2023/06/12 00:17:48;;;;;;;;;;;;;;;;;;5091222;27;19918;-70
2023/06/12 00:20:14;;;;;;;;;;;;;;;;;;5091353;28;20007;-69
2023/06/12 00:22:40;;;;;;;;;;;;;;;;;;5091394;28;19909;-69
2023/06/12 00:25:06;;;;;;;;;;;;;;;;;;5090931;28;20003;-71
2023/06/12 00:27:32;;;;;;;;;;;;;;;;;;5091460;28;19948;-70
2023/06/12 00:29:58;;;;;;;;;;;;;;;;;;5091215;28;19915;-71
2023/06/12 00:32:24;;;;;;;;;;;;;;;;;;5090770;28;19969;-70
2023/06/12 00:34:50;;;;;;;;;;;;;;;;;;5091280;28;19953;-70
2023/06/12 00:37:17;;;;;;;;;;;;;;;;;;5091031;28;20382;-70
2023/06/12 00:40:45;;;;;;;;;;;;;;;;;;5091571;27;20402;-68
2023/06/12 00:45:18;;;;;;;;;;;;;;;;;;5111649;27;20291;-69
2023/06/12 00:49:45;;;;;;;;;;;;;;;;;;5091525;28;19918;-69
2023/06/12 00:54:28;;;;;;;;;;;;;;;;;;5153102;27;20010;-69
2023/06/12 00:57:33;;;;;;;;;;;;;;;;;;5112168;27;19916;-69
2023/06/12 01:00:33;;;;;;;;;;;;;;;;;;5091172;28;19912;-69
2023/06/12 01:08:39;;;;;;;;;;;;;;;;;;5091944;28;19916;-69
2023/06/12 01:11:05;;;;;;;;;;;;;;;;;;5091378;28;19912;-69
2023/06/12 01:13:31;;;;;;;;;;;;;;;;;;5091115;28;20395;-69
2023/06/12 01:18:55;;;;;;;;;;;;;;;;;;5091740;27;19916;-69
2023/06/12 01:21:22;;;;;;;;;;;;;;;;;;5090985;28;19912;-69
2023/06/12 01:23:48;;;;;;;;;;;;;;;;;;5091242;28;19970;-69
2023/06/12 01:28:01;;;;;;;;;;;;;;;;;;5111525;27;20245;-69
2023/06/12 01:30:27;;;;;;;;;;;;;;;;;;5111948;28;20014;-70
2023/06/12 01:32:52;;;;;;;;;;;;;;;;;;5111708;28;20421;-70
2023/06/12 01:35:22;;;;;;;;;;;;;;;;;;5111276;28;20364;-70
2023/06/12 01:37:49;;;;;;;;;;;;;;;;;;5111541;28;19919;-70
2023/06/12 01:41:55;;;;;;;;;;;;;;;;;;5071179;28;19923;-69
2023/06/12 01:44:21;;;;;;;;;;;;;;;;;;5071081;28;20015;-69
2023/06/12 01:49:55;;;;;;;;;;;;;;;;;;5090970;28;19916;-69
2023/06/12 01:52:56;;;;;;;;;;;;;;;;;;5091594;27;19923;-69
2023/06/12 01:55:22;;;;;;;;;;;;;;;;;;5091305;28;20343;-69
2023/06/12 01:57:51;;;;;;;;;;;;;;;;;;5091312;28;19909;-69
2023/06/12 02:00:17;;;;;;;;;;;;;;;;;;5091290;28;19962;-69
2023/06/12 02:02:43;;;;;;;;;;;;;;;;;;5090839;28;20368;-69
2023/06/12 02:05:09;;;;;;;;;;;;;;;;;;5091337;28;20369;-69
2023/06/12 02:19:04;;;;;;;;;;;;;;;;;;5092041;28;19916;-70
2023/06/12 02:22:56;;;;;;;;;;;;;;;;;;5091301;27;19923;-69
2023/06/12 02:25:22;;;;;;;;;;;;;;;;;;5091595;28;20006;-70
2023/06/12 02:28:00;;;;;;;;;;;;;;;;;;5071808;28;19919;-70
2023/06/12 02:30:26;;;;;;;;;;;;;;;;;;5070808;28;20391;-71
2023/06/12 02:32:52;;;;;;;;;;;;;;;;;;5071442;28;19916;-70
2023/06/12 02:35:18;;;;;;;;;;;;;;;;;;5071077;28;19915;-72
2023/06/12 02:37:44;;;;;;;;;;;;;;;;;;5070605;28;19912;-71
2023/06/12 02:40:10;;;;;;;;;;;;;;;;;;5071026;28;19919;-71
2023/06/12 02:42:36;;;;;;;;;;;;;;;;;;5070946;28;19919;-70
2023/06/12 02:45:01;;;;;;;;;;;;;;;;;;5070509;28;19909;-70
2023/06/12 02:47:27;;;;;;;;;;;;;;;;;;5070783;28;19969;-70
2023/06/12 02:51:04;;;;;;;;;;;;;;;;;;5153120;27;19915;-69
2023/06/12 02:53:47;;;;;;;;;;;;;;;;;;5112098;27;19916;-69
2023/06/12 02:56:13;;;;;;;;;;;;;;;;;;5111957;28;20451;-70
2023/06/12 02:58:44;;;;;;;;;;;;;;;;;;5111347;28;19908;-70
2023/06/12 03:04:44;;;;;;;;;;;;;;;;;;5091762;27;19916;-69
2023/06/12 03:07:13;;;;;;;;;;;;;;;;;;5091010;28;19934;-70
2023/06/12 03:09:39;;;;;;;;;;;;;;;;;;5091529;28;20424;-70
2023/06/12 03:12:05;;;;;;;;;;;;;;;;;;5091583;28;19956;-72
2023/06/12 03:14:33;;;;;;;;;;;;;;;;;;5090898;28;20330;-71
2023/06/12 03:16:59;;;;;;;;;;;;;;;;;;5091343;28;19909;-71
2023/06/12 03:19:25;;;;;;;;;;;;;;;;;;5090958;28;19908;-70
2023/06/12 03:21:51;;;;;;;;;;;;;;;;;;5091329;28;19908;-70
2023/06/12 03:24:46;;;;;;;;;;;;;;;;;;5092093;27;19919;-69
2023/06/12 03:27:13;;;;;;;;;;;;;;;;;;5091387;28;20346;-69
2023/06/12 03:32:46;;;;;;;;;;;;;;;;;;5091532;28;20287;-69
2023/06/12 03:36:01;;;;;;;;;;;;;;;;;;5112204;27;19915;-69
2023/06/12 03:42:06;;;;;;;;;;;;;;;;;;5111597;27;19916;-69
2023/06/12 03:47:48;;;;;;;;;;;;;;;;;;5111427;27;19916;-69
2023/06/12 03:50:14;;;;;;;;;;;;;;;;;;5111675;28;20002;-69
2023/06/12 03:52:40;;;;;;;;;;;;;;;;;;5111669;28;19987;-69
2023/06/12 03:58:38;;;;;;;;;;;;;;;;;;5071537;28;19916;-69
2023/06/12 04:01:04;;;;;;;;;;;;;;;;;;5071071;28;19913;-69
2023/06/12 04:03:30;;;;;;;;;;;;;;;;;;5070651;28;19954;-69
2023/06/12 04:05:56;;;;;;;;;;;;;;;;;;5070897;28;20288;-69
2023/06/12 04:08:22;;;;;;;;;;;;;;;;;;5070622;28;19908;-69
2023/06/12 04:10:48;;;;;;;;;;;;;;;;;;5070282;28;19913;-69
2023/06/12 04:14:22;;;;;;;;;;;;;;;;;;5091607;27;19923;-70
2023/06/12 04:18:01;;;;;;;;;;;;;;;;;;5089957;27;19923;-69
2023/06/12 04:20:27;;;;;;;;;;;;;;;;;;5091526;28;20006;-69
2023/06/12 04:23:29;;;;;;;;;;;;;;;;;;5090536;27;19917;-69
2023/06/12 04:26:01;;;;;;;;;;;;;;;;;;5089319;28;19956;-69
2023/06/12 04:28:28;;;;;;;;;;;;;;;;;;5089250;28;19909;-69
2023/06/12 04:32:56;;;;;;;;;;;;;;;;;;5089310;27;19916;-70
2023/06/12 04:35:22;;;;;;;;;;;;;;;;;;5089560;28;19912;-69
2023/06/12 04:45:05;;;;;;;;;;;;;;;;;;5090377;27;20300;-69
2023/06/12 04:49:57;;;;;;;;;;;;;;;;;;5090691;27;20306;-69
2023/06/12 04:54:44;;;;;;;;;;;;;;;;;;5069887;28;19923;-68
2023/06/12 04:58:42;;;;;;;;;;;;;;;;;;5091324;27;19923;-69
2023/06/12 05:03:05;;;;;;;;;;;;;;;;;;5087710;28;19923;-68
2023/06/12 05:05:50;;;;;;;;;;;;;;;;;;5088746;27;19919;-67
2023/06/12 05:08:28;;;;;;;;;;;;;;;;;;5109379;27;19916;-67
2023/06/12 05:10:54;;;;;;;;;;;;;;;;;;5110120;28;20008;-67
2023/06/12 05:16:09;;;;;;;;;;;;;;;;;;5089484;27;19920;-66
2023/06/12 05:18:35;;;;;;;;;;;;;;;;;;5088725;28;19916;-67
2023/06/12 05:21:01;;;;;;;;;;;;;;;;;;5081556;28;20253;-67
2023/06/12 05:23:27;;;;;;;;;;;;;;;;;;5066311;28;19988;-67
2023/06/12 05:25:53;;;;;;;;;;;;;;;;;;5061940;28;19913;-68
2023/06/12 05:28:37;;;;;;;;;;;;;;;;;;5038252;28;20366;-68
2023/06/12 05:31:56;;;;;;;;;;;;;;;;;;5087865;28;19920;-68
2023/06/12 05:34:22;;;;;;;;;;;;;;;;;;5081364;28;19920;-66
2023/06/12 05:37:09;;;;;;;;;;;;;;;;;;5081980;27;19935;-68
2023/06/12 05:39:35;;;;;;;;;;;;;;;;;;5069220;28;19916;-68
2023/06/12 05:42:01;;;;;;;;;;;;;;;;;;5065792;28;19924;-68
2023/06/12 05:44:27;;;;;;;;;;;;;;;;;;5076990;28;20003;-68
2023/06/12 05:46:53;;;;;;;;;;;;;;;;;;5061164;28;19943;-69
2023/06/12 05:53:00;;;;;;;;;;;;;;;;;;5131487;27;19923;-67
2023/06/12 05:55:46;;;;;;;;;;;;;;;;;;5096277;27;19924;-67
2023/06/12 05:58:45;;;;;;;;;;;;;;;;;;5056205;28;19927;-67
2023/06/12 06:01:11;;;;;;;;;;;;;;;;;;5058485;28;19970;-69
2023/06/12 06:06:01;;;;;;;;;;;;;;;;;;5072480;27;20458;-68
2023/06/12 06:11:40;;;;;;;;;;;;;;;;;;5125322;27;19927;-69
2023/06/12 06:16:41;;;;;;;;;;;;;;;;;;5083540;27;20314;-69
2023/06/12 06:19:09;;;;;;;;;;;;;;;;;;5085882;28;19962;-68
2023/06/12 06:30:52;;;;;;;;;;;;;;;;;;5085168;27;19926;-68
2023/06/12 06:33:18;;;;;;;;;;;;;;;;;;5088027;28;19919;-68
2023/06/12 06:35:44;;;;;;;;;;;;;;;;;;5085992;28;19908;-68
2023/06/12 06:38:25;;;;;;;;;;;;;;;;;;5131577;27;19919;-70
2023/06/12 06:40:51;;;;;;;;;;;;;;;;;;5142468;27;19934;-67
2023/06/12 06:43:17;;;;;;;;;;;;;;;;;;5129328;27;19924;-67
2023/06/12 06:45:43;;;;;;;;;;;;;;;;;;5146231;27;19919;-68
2023/06/12 06:48:09;;;;;;;;;;;;;;;;;;5144086;27;19912;-67
2023/06/12 06:51:38;;;;;;;;;;;;;;;;;;5086869;27;19920;-68
2023/06/12 06:56:43;;;;;;;;;;;;;;;;;;5058894;28;19917;-68
2023/06/12 07:02:35;;;;;;;;;;;;;;;;;;5098123;27;19920;-68
2023/06/12 07:07:23;;;;;;;;;;;;;;;;;;5133524;27;20287;-68
2023/06/12 07:10:27;;;;;;;;;;;;;;;;;;5080279;27;19916;-68
2023/06/12 07:14:44;;;;;;;;;;;;;;;;;;5084601;27;19923;-67
2023/06/12 07:18:14;;;;;;;;;;;;;;;;;;5129621;27;19920;-67
2023/06/12 07:21:19;;;;;;;;;;;;;;;;;;5115936;27;20526;-68
2023/06/12 07:23:45;;;;;;;;;;;;;;;;;;5096003;28;20002;-69
2023/06/12 07:27:02;;;;;;;;;;;;;;;;;;5144062;27;19990;-69
2023/06/12 07:33:22;;;;;;;;;;;;;;;;;;5139342;27;19916;-67
2023/06/12 07:35:49;;;;;;;;;;;;;;;;;;5101635;28;19991;-68
2023/06/12 07:40:14;;;;;;;;;;;;;;;;;;4947201;27;4516139;-67
2023/06/12 07:42:42;;;;;;;;;;;;;;;;;;5106388;28;19919;-67
2023/06/12 07:49:48;;;;;;;;;;;;;;;;;;5083224;27;19920;-67
2023/06/12 07:52:14;;;;;;;;;;;;;;;;;;5065855;28;20584;-65
2023/06/12 07:55:38;;;;;;;;;;;;;;;;;;5091089;28;19916;-66
2023/06/12 07:58:06;;;;;;;;;;;;;;;;;;5090310;28;20423;-67
2023/06/12 08:00:32;;;;;;;;;;;;;;;;;;5085373;28;20372;-67
2023/06/12 08:02:58;;;;;;;;;;;;;;;;;;5085187;28;20333;-67
2023/06/12 08:05:25;;;;;;;;;;;;;;;;;;5086192;28;20388;-66
2023/06/12 08:07:50;;;;;;;;;;;;;;;;;;5086961;28;20677;-66
2023/06/12 08:16:16;;;;;;;;;;;;;;;;;;5100451;27;19924;-66
2023/06/12 08:18:42;;;;;;;;;;;;;;;;;;5091859;28;19917;-65
2023/06/12 08:21:25;;;;;;;;;;;;;;;;;;5137325;27;20290;-66
2023/06/12 08:25:23;;;;;;;;;;;;;;;;;;5135523;27;19922;-66
2023/06/12 08:27:49;;;;;;;;;;;;;;;;;;5109392;28;20371;-66
2023/06/12 08:30:16;;;;;;;;;;;;;;;;;;5110555;28;20018;-67
2023/06/12 08:34:31;;;;;;;;;;;;;;;;;;5089474;27;19920;-66
2023/06/12 08:41:37;;;;;;;;;;;;;;;;;;5088530;27;19916;-65
2023/06/12 08:44:03;;;;;;;;;;;;;;;;;;5072366;28;19919;-68
2023/06/12 08:47:00;;;;;;;;;;;;;;;;;;5067232;28;19923;-66
2023/06/12 08:52:27;;;;;;;;;;;;;;;;;;5086112;27;19912;-65
2023/06/12 08:56:59;;;;;;;;;;;;;;;;;;5105813;27;19923;-66
2023/06/12 09:00:56;;;;;;;;;;;;;;;;;;5082282;28;19923;-67
2023/06/12 09:03:22;;;;;;;;;;;;;;;;;;5086853;28;20376;-68
2023/06/12 09:05:47;;;;;;;;;;;;;;;;;;5083146;28;19912;-67
2023/06/12 09:09:00;;;;;;;;;;;;;;;;;;5087153;27;19995;-68
2023/06/12 09:11:49;;;;;;;;;;;;;;;;;;5082816;27;19920;-67
2023/06/12 09:14:40;;;;;;;;;;;;;;;;;;5085780;27;19927;-67
2023/06/12 09:18:41;;;;;;;;;;;;;;;;;;5103931;27;19920;-67
2023/06/12 09:24:41;;;;;;;;;;;;;;;;;;5066759;28;19926;-66
2023/06/12 09:27:07;;;;;;;;;;;;;;;;;;5055222;28;19913;-66
2023/06/12 09:30:16;;;;;;;;;;;;;;;;;;5090551;27;20330;-66
2023/06/12 09:40:36;;;;;;;;;;;;;;;;;;5085189;27;20258;-66
2023/06/12 09:43:02;;;;;;;;;;;;;;;;;;5085384;28;19917;-67
2023/06/12 09:49:26;;;;;;;;;;;;;;;;;;5084717;27;19916;-66
2023/06/12 09:52:28;;;;;;;;;;;;;;;;;;5119815;27;19924;-69
2023/06/12 09:54:56;;;;;;;;;;;;;;;;;;5098709;28;19916;-69
2023/06/12 09:59:34;;;;;;;;;;;;;;;;;;5128551;27;19920;-66
2023/06/12 10:02:00;;;;;;;;;;;;;;;;;;5127936;28;19916;-70
2023/06/12 10:05:44;;;;;;;;;;;;;;;;;;5087900;27;19922;-69
2023/06/12 10:08:10;;;;;;;;;;;;;;;;;;5082013;28;19913;-69
2023/06/12 10:11:46;;;;;;;;;;;;;;;;;;5149391;27;19919;-68
2023/06/12 10:17:31;;;;;;;;;;;;;;;;;;5088408;27;19912;-70
2023/06/12 10:19:57;;;;;;;;;;;;;;;;;;5088997;28;19912;-70
2023/06/12 10:22:23;;;;;;;;;;;;;;;;;;5088470;28;19912;-71
2023/06/12 10:26:15;;;;;;;;;;;;;;;;;;5088679;27;19913;-70
2023/06/12 10:31:07;;;;;;;;;;;;;;;;;;5120221;27;20346;-69
2023/06/12 10:33:33;;;;;;;;;;;;;;;;;;5125808;28;19915;-69
2023/06/12 10:35:59;;;;;;;;;;;;;;;;;;5126486;28;20260;-70
2023/06/12 10:38:25;;;;;;;;;;;;;;;;;;5108940;28;19958;-68
2023/06/12 10:45:03;;;;;;;;;;;;;;;;;;5150469;27;20333;-69
2023/06/12 10:47:29;;;;;;;;;;;;;;;;;;5149276;27;20426;-69
2023/06/12 10:49:55;;;;;;;;;;;;;;;;;;5150199;27;19911;-68
2023/06/12 10:52:21;;;;;;;;;;;;;;;;;;5147803;27;19911;-69
2023/06/12 10:54:47;;;;;;;;;;;;;;;;;;5148511;27;19908;-70
2023/06/12 10:57:13;;;;;;;;;;;;;;;;;;5122786;27;19929;-70
2023/06/12 10:59:40;;;;;;;;;;;;;;;;;;5151676;27;19930;-68
2023/06/12 11:02:05;;;;;;;;;;;;;;;;;;5152223;27;19911;-69
2023/06/12 11:04:31;;;;;;;;;;;;;;;;;;5147825;27;19923;-68
2023/06/12 11:08:10;;;;;;;;;;;;;;;;;;5133060;27;19920;-65
2023/06/12 11:10:36;;;;;;;;;;;;;;;;;;5132307;27;20006;-65
2023/06/12 11:13:05;;;;;;;;;;;;;;;;;;5131088;28;19954;-68
2023/06/12 11:15:31;;;;;;;;;;;;;;;;;;5131630;27;19998;-66
2023/06/12 11:17:57;;;;;;;;;;;;;;;;;;5130915;27;20402;-66
2023/06/12 11:20:23;;;;;;;;;;;;;;;;;;5138770;27;20347;-66
2023/06/12 11:22:49;;;;;;;;;;;;;;;;;;5144993;27;20278;-66
2023/06/12 11:25:18;;;;;;;;;;;;;;;;;;5141285;27;20377;-66
2023/06/12 11:27:44;;;;;;;;;;;;;;;;;;5132281;27;19982;-66
2023/06/12 11:30:10;;;;;;;;;;;;;;;;;;5120503;27;20323;-65
2023/06/12 11:32:36;;;;;;;;;;;;;;;;;;5128581;27;19956;-65
2023/06/12 11:35:03;;;;;;;;;;;;;;;;;;5134218;27;19912;-67
2023/06/12 11:37:29;;;;;;;;;;;;;;;;;;5132057;27;19915;-66
2023/06/12 11:39:55;;;;;;;;;;;;;;;;;;5144230;27;19918;-66
2023/06/12 11:42:21;;;;;;;;;;;;;;;;;;5129633;27;19907;-65
2023/06/12 11:44:47;;;;;;;;;;;;;;;;;;5135156;27;20017;-66
2023/06/12 11:47:13;;;;;;;;;;;;;;;;;;5099224;28;19924;-66
2023/06/12 11:49:39;;;;;;;;;;;;;;;;;;5122932;27;19920;-68
2023/06/12 11:52:05;;;;;;;;;;;;;;;;;;5127400;27;19912;-68
2023/06/12 11:54:31;;;;;;;;;;;;;;;;;;5128478;27;19938;-67
2023/06/12 11:56:57;;;;;;;;;;;;;;;;;;5103789;28;20435;-67
2023/06/12 11:59:26;;;;;;;;;;;;;;;;;;5128101;28;19908;-67
2023/06/12 12:01:52;;;;;;;;;;;;;;;;;;5128409;28;19907;-67
2023/06/12 12:04:18;;;;;;;;;;;;;;;;;;5132555;27;19911;-66
2023/06/12 12:06:44;;;;;;;;;;;;;;;;;;5113265;27;20010;-68
2023/06/12 12:09:10;;;;;;;;;;;;;;;;;;5130869;27;20075;-66
2023/06/12 12:11:36;;;;;;;;;;;;;;;;;;5128239;27;19911;-67
2023/06/12 12:14:03;;;;;;;;;;;;;;;;;;5148853;27;19915;-67
2023/06/12 12:16:29;;;;;;;;;;;;;;;;;;5146150;27;19959;-67
2023/06/12 12:18:56;;;;;;;;;;;;;;;;;;5117009;28;19918;-67
2023/06/12 12:21:22;;;;;;;;;;;;;;;;;;5104534;28;19916;-68
2023/06/12 12:23:48;;;;;;;;;;;;;;;;;;5112789;27;19938;-67
2023/06/12 12:26:15;;;;;;;;;;;;;;;;;;5118059;27;19916;-67
2023/06/12 12:28:41;;;;;;;;;;;;;;;;;;5113435;28;19951;-68
2023/06/12 12:31:08;;;;;;;;;;;;;;;;;;5111149;28;19933;-67
2023/06/12 12:33:34;;;;;;;;;;;;;;;;;;5112488;27;19981;-68
2023/06/12 12:36:00;;;;;;;;;;;;;;;;;;5110011;28;20534;-68
2023/06/12 12:38:26;;;;;;;;;;;;;;;;;;5093566;28;19911;-69
2023/06/12 12:40:52;;;;;;;;;;;;;;;;;;5124122;27;19953;-67
2023/06/12 12:43:17;;;;;;;;;;;;;;;;;;5116763;27;19923;-68
2023/06/12 12:45:43;;;;;;;;;;;;;;;;;;5091931;28;20535;-67
2023/06/12 12:48:09;;;;;;;;;;;;;;;;;;5112944;28;20339;-67
2023/06/12 12:50:35;;;;;;;;;;;;;;;;;;5119257;27;20151;-67
2023/06/12 12:53:01;;;;;;;;;;;;;;;;;;5113935;27;19934;-67
2023/06/12 12:55:32;;;;;;;;;;;;;;;;;;5088678;28;19974;-66
2023/06/12 12:57:58;;;;;;;;;;;;;;;;;;5116348;27;19919;-67
2023/06/12 13:00:24;;;;;;;;;;;;;;;;;;5117390;27;19916;-71
2023/06/12 13:02:50;;;;;;;;;;;;;;;;;;5113516;28;19911;-68
2023/06/12 13:05:16;;;;;;;;;;;;;;;;;;5115484;28;19953;-69
2023/06/12 13:07:42;;;;;;;;;;;;;;;;;;5115926;28;20376;-69
2023/06/12 13:10:08;;;;;;;;;;;;;;;;;;5115905;28;19929;-69
2023/06/12 13:12:33;;;;;;;;;;;;;;;;;;5116184;28;19915;-69
2023/06/12 13:14:59;;;;;;;;;;;;;;;;;;5116523;28;19911;-71
2023/06/12 13:17:25;;;;;;;;;;;;;;;;;;5115696;28;19915;-69
2023/06/12 13:19:52;;;;;;;;;;;;;;;;;;5115257;28;19999;-71
2023/06/12 13:22:18;;;;;;;;;;;;;;;;;;5097625;28;19907;-69
2023/06/12 13:24:44;;;;;;;;;;;;;;;;;;5115511;28;20386;-70
2023/06/12 13:27:10;;;;;;;;;;;;;;;;;;5115963;28;19938;-70
2023/06/12 13:29:37;;;;;;;;;;;;;;;;;;5115103;28;19991;-71
2023/06/12 13:32:03;;;;;;;;;;;;;;;;;;5115514;28;20363;-71
2023/06/12 13:34:29;;;;;;;;;;;;;;;;;;5115986;28;19915;-68
2023/06/12 13:36:55;;;;;;;;;;;;;;;;;;5115607;28;20375;-69
2023/06/12 13:39:21;;;;;;;;;;;;;;;;;;5115257;28;19915;-70
2023/06/12 13:41:47;;;;;;;;;;;;;;;;;;5115834;28;19908;-69
2023/06/12 13:44:13;;;;;;;;;;;;;;;;;;5115796;28;19908;-72
2023/06/12 13:46:39;;;;;;;;;;;;;;;;;;5115072;28;20014;-68
2023/06/12 13:49:06;;;;;;;;;;;;;;;;;;5115609;28;19908;-71
2023/06/12 13:51:37;;;;;;;;;;;;;;;;;;5114981;28;19987;-68
2023/06/12 13:54:03;;;;;;;;;;;;;;;;;;5114822;28;20271;-69
2023/06/12 13:56:29;;;;;;;;;;;;;;;;;;5115326;28;19908;-68
2023/06/12 13:58:55;;;;;;;;;;;;;;;;;;5115214;28;19999;-68
2023/06/12 14:01:21;;;;;;;;;;;;;;;;;;5096466;28;19950;-70
2023/06/12 14:03:47;;;;;;;;;;;;;;;;;;5115048;28;19907;-71
2023/06/12 14:06:13;;;;;;;;;;;;;;;;;;5114716;28;20295;-71
2023/06/12 14:08:42;;;;;;;;;;;;;;;;;;5115014;28;19911;-71
2023/06/12 14:11:08;;;;;;;;;;;;;;;;;;5115015;28;19952;-70
2023/06/12 14:13:34;;;;;;;;;;;;;;;;;;5114589;28;20325;-71
2023/06/12 14:16:01;;;;;;;;;;;;;;;;;;5114948;28;20391;-70
2023/06/12 14:18:27;;;;;;;;;;;;;;;;;;5115055;28;19908;-70
2023/06/12 14:20:54;;;;;;;;;;;;;;;;;;5114341;28;19914;-70
2023/06/12 14:23:20;;;;;;;;;;;;;;;;;;5115164;28;19911;-70
2023/06/12 14:25:46;;;;;;;;;;;;;;;;;;5114515;28;20443;-70
2023/06/12 14:28:12;;;;;;;;;;;;;;;;;;5112167;28;19998;-70
2023/06/12 14:30:38;;;;;;;;;;;;;;;;;;5114365;28;19908;-70
2023/06/12 14:33:04;;;;;;;;;;;;;;;;;;5114716;28;19915;-70
2023/06/12 14:35:30;;;;;;;;;;;;;;;;;;5114276;28;20355;-70
2023/06/12 14:37:56;;;;;;;;;;;;;;;;;;5115150;28;20365;-69
2023/06/12 14:40:22;;;;;;;;;;;;;;;;;;5114631;28;19991;-70
2023/06/12 14:42:48;;;;;;;;;;;;;;;;;;5113864;28;19908;-70
2023/06/12 14:45:14;;;;;;;;;;;;;;;;;;5114473;28;20006;-69
2023/06/12 14:47:40;;;;;;;;;;;;;;;;;;5114455;28;19920;-70
2023/06/12 14:50:06;;;;;;;;;;;;;;;;;;5114024;28;19915;-70
2023/06/12 14:52:32;;;;;;;;;;;;;;;;;;5114345;28;19914;-69
2023/06/12 14:54:57;;;;;;;;;;;;;;;;;;5114379;28;19933;-69
2023/06/12 14:57:23;;;;;;;;;;;;;;;;;;5113861;28;19908;-69
2023/06/12 14:59:49;;;;;;;;;;;;;;;;;;5114394;28;19912;-69
2023/06/12 15:02:15;;;;;;;;;;;;;;;;;;5114253;28;19907;-69
2023/06/12 15:04:41;;;;;;;;;;;;;;;;;;5113788;28;19943;-70
2023/06/12 15:07:07;;;;;;;;;;;;;;;;;;5113802;28;20371;-70
2023/06/12 15:11:04;;;;;;;;;;;;;;;;;;5152757;27;19915;-68
2023/06/12 15:13:30;;;;;;;;;;;;;;;;;;5152982;27;19918;-70
2023/06/12 15:16:44;;;;;;;;;;;;;;;;;;5091070;27;19923;-68
2023/06/12 15:28:37;;;;;;;;;;;;;;;;;;5091316;27;19916;-68
2023/06/12 15:39:29;;;;;;;;;;;;;;;;;;5152646;27;19922;-68
2023/06/12 15:43:07;;;;;;;;;;;;;;;;;;5091289;27;19916;-68
2023/06/12 15:45:33;;;;;;;;;;;;;;;;;;5091168;28;19938;-68
2023/06/12 15:47:59;;;;;;;;;;;;;;;;;;5091190;28;19912;-68
2023/06/12 15:50:25;;;;;;;;;;;;;;;;;;5090051;28;19909;-67
2023/06/12 15:52:51;;;;;;;;;;;;;;;;;;5090750;28;19950;-67
2023/06/12 15:58:00;;;;;;;;;;;;;;;;;;5091695;27;19916;-68
2023/06/12 16:00:26;;;;;;;;;;;;;;;;;;5090944;28;19999;-67
2023/06/12 16:02:52;;;;;;;;;;;;;;;;;;5091477;28;19909;-67
2023/06/12 16:07:01;;;;;;;;;;;;;;;;;;5091297;28;19923;-69
2023/06/12 16:12:17;;;;;;;;;;;;;;;;;;5091586;27;20377;-69
2023/06/12 16:16:08;;;;;;;;;;;;;;;;;;5071446;28;20395;-69
2023/06/12 16:18:34;;;;;;;;;;;;;;;;;;5071508;28;19999;-69
2023/06/12 16:21:16;;;;;;;;;;;;;;;;;;5111428;27;20375;-69
2023/06/12 16:23:42;;;;;;;;;;;;;;;;;;5111713;28;19999;-70
2023/06/12 16:26:08;;;;;;;;;;;;;;;;;;5112163;28;20344;-69
2023/06/12 16:28:34;;;;;;;;;;;;;;;;;;5111197;28;19961;-68
2023/06/12 16:31:01;;;;;;;;;;;;;;;;;;5111232;28;20017;-67
2023/06/12 16:33:27;;;;;;;;;;;;;;;;;;5111214;28;19912;-68
2023/06/12 16:35:53;;;;;;;;;;;;;;;;;;5110553;28;19908;-68
2023/06/12 16:38:20;;;;;;;;;;;;;;;;;;5110974;28;20368;-69
2023/06/12 16:40:47;;;;;;;;;;;;;;;;;;5111214;28;19923;-69
2023/06/12 16:43:47;;;;;;;;;;;;;;;;;;5090928;27;19912;-68
2023/06/12 16:46:13;;;;;;;;;;;;;;;;;;5091440;28;20002;-68
2023/06/12 16:48:40;;;;;;;;;;;;;;;;;;5091260;28;19908;-68
2023/06/12 16:56:59;;;;;;;;;;;;;;;;;;5090959;27;19916;-68
2023/06/12 17:03:31;;;;;;;;;;;;;;;;;;5111416;27;19934;-67
2023/06/12 17:05:57;;;;;;;;;;;;;;;;;;5111666;28;20431;-69
2023/06/12 17:11:10;;;;;;;;;;;;;;;;;;5090808;27;19935;-68
2023/06/12 17:15:29;;;;;;;;;;;;;;;;;;5152763;27;19918;-69
2023/06/12 17:18:34;;;;;;;;;;;;;;;;;;5153249;27;20358;-68
2023/06/12 17:22:24;;;;;;;;;;;;;;;;;;5051166;28;19936;-68
2023/06/12 17:24:50;;;;;;;;;;;;;;;;;;5050759;28;20408;-68
2023/06/12 17:35:10;;;;;;;;;;;;;;;;;;5091528;28;19917;-67
2023/06/12 17:39:27;;;;;;;;;;;;;;;;;;5091007;28;19912;-68
2023/06/12 17:43:05;;;;;;;;;;;;;;;;;;5091493;27;20404;-68
2023/06/12 17:45:31;;;;;;;;;;;;;;;;;;5090969;28;19916;-69
2023/06/12 17:47:57;;;;;;;;;;;;;;;;;;5090020;28;19908;-68
2023/06/12 17:50:23;;;;;;;;;;;;;;;;;;5091297;28;19995;-68
2023/06/12 17:52:49;;;;;;;;;;;;;;;;;;5090790;28;20368;-68
2023/06/12 17:55:15;;;;;;;;;;;;;;;;;;5089868;28;19919;-68
2023/06/12 17:57:41;;;;;;;;;;;;;;;;;;5091093;28;19908;-68
2023/06/12 18:01:29;;;;;;;;;;;;;;;;;;5091519;27;19917;-68
2023/06/12 18:03:55;;;;;;;;;;;;;;;;;;5089981;28;19912;-69
2023/06/12 18:06:21;;;;;;;;;;;;;;;;;;5090823;28;20334;-68
2023/06/12 18:10:21;;;;;;;;;;;;;;;;;;5091330;27;19919;-69
2023/06/12 18:12:46;;;;;;;;;;;;;;;;;;5090776;28;20007;-69
2023/06/12 18:16:26;;;;;;;;;;;;;;;;;;5091433;28;20388;-68
2023/06/12 18:21:48;;;;;;;;;;;;;;;;;;5091017;27;19923;-68
2023/06/12 18:24:14;;;;;;;;;;;;;;;;;;5091222;28;19912;-69
2023/06/12 18:29:02;;;;;;;;;;;;;;;;;;5091238;27;20355;-68
2023/06/12 18:31:28;;;;;;;;;;;;;;;;;;5091330;28;19999;-69
2023/06/12 18:33:54;;;;;;;;;;;;;;;;;;5091039;28;20357;-69
2023/06/12 18:36:20;;;;;;;;;;;;;;;;;;5091192;28;19913;-68
2023/06/12 18:40:39;;;;;;;;;;;;;;;;;;5090962;28;19923;-69
2023/06/12 18:43:06;;;;;;;;;;;;;;;;;;5091473;28;20385;-69
2023/06/12 18:45:54;;;;;;;;;;;;;;;;;;5112322;27;19916;-69
2023/06/12 18:48:45;;;;;;;;;;;;;;;;;;5091209;27;20364;-67
2023/06/12 18:51:10;;;;;;;;;;;;;;;;;;5091399;28;20326;-69
2023/06/12 18:54:44;;;;;;;;;;;;;;;;;;5091170;28;19913;-69
2023/06/12 18:57:13;;;;;;;;;;;;;;;;;;5091485;28;19912;-68
2023/06/12 18:59:39;;;;;;;;;;;;;;;;;;5091556;28;19912;-69
2023/06/12 19:05:20;;;;;;;;;;;;;;;;;;5091319;27;19916;-68
2023/06/12 19:12:20;;;;;;;;;;;;;;;;;;5152949;27;20010;-69
2023/06/12 19:15:08;;;;;;;;;;;;;;;;;;5091547;27;20382;-69
2023/06/12 19:25:54;;;;;;;;;;;;;;;;;;5091559;28;20300;-69
2023/06/12 19:28:38;;;;;;;;;;;;;;;;;;5091476;28;19918;-69
2023/06/12 19:31:04;;;;;;;;;;;;;;;;;;5090952;28;19995;-69
2023/06/12 19:39:23;;;;;;;;;;;;;;;;;;5089281;28;19923;-70
2023/06/12 19:41:49;;;;;;;;;;;;;;;;;;5089366;28;19913;-69
2023/06/12 19:48:16;;;;;;;;;;;;;;;;;;5109522;27;19919;-69
2023/06/12 19:53:13;;;;;;;;;;;;;;;;;;5152176;27;19922;-70
2023/06/12 19:56:02;;;;;;;;;;;;;;;;;;5091513;27;20380;-69
2023/06/12 20:02:31;;;;;;;;;;;;;;;;;;5152053;27;20349;-70
2023/06/12 20:06:09;;;;;;;;;;;;;;;;;;5091438;27;19913;-68
2023/06/12 20:08:35;;;;;;;;;;;;;;;;;;5091383;28;19956;-69
2023/06/12 20:11:53;;;;;;;;;;;;;;;;;;5092255;27;20284;-68
2023/06/12 20:14:18;;;;;;;;;;;;;;;;;;5091028;28;20011;-67
2023/06/12 20:21:24;;;;;;;;;;;;;;;;;;5091884;27;19916;-69
2023/06/12 20:24:51;;;;;;;;;;;;;;;;;;5092097;27;19923;-69
2023/06/12 20:27:16;;;;;;;;;;;;;;;;;;5091060;28;20333;-70
2023/06/12 20:31:00;;;;;;;;;;;;;;;;;;5091958;27;19917;-69
2023/06/12 20:37:11;;;;;;;;;;;;;;;;;;5091969;27;19917;-70
2023/06/12 20:39:37;;;;;;;;;;;;;;;;;;5091633;28;20012;-68
2023/06/12 20:42:03;;;;;;;;;;;;;;;;;;5090925;28;20383;-69
2023/06/12 20:45:57;;;;;;;;;;;;;;;;;;5091965;27;19916;-69
2023/06/12 20:48:23;;;;;;;;;;;;;;;;;;5091224;28;19912;-69
2023/06/12 20:53:52;;;;;;;;;;;;;;;;;;5091663;27;20380;-70
2023/06/12 20:58:13;;;;;;;;;;;;;;;;;;5091888;27;20414;-69
2023/06/12 21:00:40;;;;;;;;;;;;;;;;;;5091395;28;20002;-69
2023/06/12 21:03:46;;;;;;;;;;;;;;;;;;5092128;27;20287;-69
2023/06/12 21:06:12;;;;;;;;;;;;;;;;;;5091343;28;19912;-69
2023/06/12 21:08:37;;;;;;;;;;;;;;;;;;5089677;28;19954;-69
2023/06/12 21:11:04;;;;;;;;;;;;;;;;;;5091316;28;19909;-69
2023/06/12 21:13:30;;;;;;;;;;;;;;;;;;5091226;28;19942;-70
2023/06/12 21:17:55;;;;;;;;;;;;;;;;;;5092289;27;19912;-69
2023/06/12 21:22:50;;;;;;;;;;;;;;;;;;5091285;27;19917;-69
2023/06/12 21:25:17;;;;;;;;;;;;;;;;;;5091379;28;20000;-69
2023/06/12 21:31:29;;;;;;;;;;;;;;;;;;5091079;27;19916;-70
2023/06/12 21:34:33;;;;;;;;;;;;;;;;;;5091836;27;19919;-69
2023/06/12 21:36:59;;;;;;;;;;;;;;;;;;5090994;28;20384;-69
2023/06/12 21:39:26;;;;;;;;;;;;;;;;;;5091495;28;19934;-68
2023/06/12 21:43:37;;;;;;;;;;;;;;;;;;5111558;27;19912;-69
2023/06/12 21:46:02;;;;;;;;;;;;;;;;;;5111754;28;19935;-69
2023/06/12 21:50:33;;;;;;;;;;;;;;;;;;5091077;27;19918;-68
2023/06/12 21:52:59;;;;;;;;;;;;;;;;;;5091509;28;19912;-69
2023/06/12 21:55:25;;;;;;;;;;;;;;;;;;5091443;28;20349;-69
2023/06/12 21:59:14;;;;;;;;;;;;;;;;;;5070938;28;19975;-70
2023/06/12 22:04:24;;;;;;;;;;;;;;;;;;5091916;27;19913;-69
2023/06/12 22:07:42;;;;;;;;;;;;;;;;;;5091716;27;19916;-69
2023/06/12 22:17:39;;;;;;;;;;;;;;;;;;5111726;27;19922;-70
2023/06/12 22:20:05;;;;;;;;;;;;;;;;;;5111491;28;20006;-69
2023/06/12 22:24:14;;;;;;;;;;;;;;;;;;5092241;27;19916;-70
2023/06/12 22:26:40;;;;;;;;;;;;;;;;;;5091087;28;19912;-69